Time;durP1;ratioP1;P1;durP2;ratioP2;P2;SDS_P1;SDS_P2;PMS_P1;PMS_P2;Temp;Humidity;BMP_temperature;BMP_pressure;BME280_temperature;BME280_humidity;BME280_pressure;Samples;Min_cycle;Max_cycle;Signal;HPM_P1;HPM_P2
2024/03/12 00:00:17;;;;;;;11.07;7.68;;;;;;;18.70;44.71;100858.66;4967208;28;20031;-74
2024/03/12 00:02:44;;;;;;;11.13;8.00;;;;;;;18.74;44.53;100879.41;4968117;28;20034;-73
2024/03/12 00:05:13;;;;;;;10.48;7.93;;;;;;;18.78;44.68;100887.91;4973381;28;20031;-74
2024/03/12 00:07:40;;;;;;;9.73;7.38;;;;;;;18.63;44.54;100863.63;4973146;28;20424;-74
2024/03/12 00:10:08;;;;;;;9.82;7.57;;;;;;;18.73;44.78;100888.28;4973385;28;20038;-75
2024/03/12 00:12:35;;;;;;;10.75;7.65;;;;;;;18.71;44.75;100882.28;4973318;28;20378;-74
2024/03/12 00:15:01;;;;;;;11.02;7.63;;;;;;;18.68;44.70;100888.66;4974044;28;20035;-74
2024/03/12 00:17:26;;;;;;;9.55;7.50;;;;;;;18.68;44.59;100899.22;4972083;28;20037;-73
2024/03/12 00:19:53;;;;;;;10.43;7.85;;;;;;;18.68;44.67;100901.84;4973239;28;20065;-72
2024/03/12 00:22:18;;;;;;;10.77;7.70;;;;;;;18.66;44.59;100902.97;4973917;28;20431;-73
2024/03/12 00:24:44;;;;;;;11.40;7.60;;;;;;;18.57;44.55;100893.16;4972489;28;20110;-73
2024/03/12 00:27:10;;;;;;;10.95;7.90;;;;;;;18.57;44.64;100895.81;4973375;28;20082;-72
2024/03/12 00:29:35;;;;;;;10.27;7.32;;;;;;;18.66;44.56;100914.34;4973259;28;20026;-74
2024/03/12 00:32:00;;;;;;;9.27;7.03;;;;;;;18.52;44.59;100896.19;4972764;28;20387;-73
2024/03/12 00:34:26;;;;;;;9.18;7.00;;;;;;;18.64;44.55;100921.56;4973382;28;20066;-74
2024/03/12 00:36:52;;;;;;;9.43;6.93;;;;;;;18.63;44.54;100919.06;4973111;28;20478;-74
2024/03/12 00:39:18;;;;;;;9.20;6.72;;;;;;;18.61;44.69;100920.97;4970949;28;20035;-74
2024/03/12 00:41:43;;;;;;;8.75;6.68;;;;;;;18.62;44.57;100920.84;4972787;28;20034;-74
2024/03/12 00:44:08;;;;;;;8.57;6.22;;;;;;;18.62;44.43;100925.28;4974019;28;20030;-74
2024/03/12 00:46:35;;;;;;;8.52;6.57;;;;;;;18.47;44.43;100903.63;4971980;28;20460;-74
2024/03/12 00:49:01;;;;;;;9.63;7.13;;;;;;;18.47;44.55;100907.09;4973915;28;20081;-74
2024/03/12 00:51:26;;;;;;;9.80;6.93;;;;;;;18.47;44.48;100908.91;4973811;28;20026;-74
2024/03/12 00:53:51;;;;;;;9.43;6.53;;;;;;;18.44;44.38;100901.25;4973428;28;20018;-74
2024/03/12 00:56:17;;;;;;;9.25;6.90;;;;;;;18.45;44.45;100914.31;4973712;28;20113;-74
2024/03/12 00:58:42;;;;;;;8.68;6.35;;;;;;;18.49;44.52;100926.28;4973639;28;20402;-74
2024/03/12 01:01:14;;;;;;;8.70;6.57;;;;;;;18.48;44.44;100921.13;4973348;28;20026;-75
2024/03/12 01:03:39;;;;;;;8.82;6.32;;;;;;;18.52;44.34;100938.41;4972340;28;20383;-75
2024/03/12 01:06:05;;;;;;;9.32;6.40;;;;;;;18.53;44.26;100933.94;4972943;28;20035;-75
2024/03/12 01:08:31;;;;;;;8.80;6.32;;;;;;;18.51;44.33;100939.34;4973363;28;20385;-75
2024/03/12 01:10:58;;;;;;;8.88;6.10;;;;;;;18.38;44.46;100918.41;4973181;28;20085;-74
2024/03/12 01:13:24;;;;;;;6.95;5.32;;;;;;;18.49;44.41;100934.19;4973604;28;20034;-75
2024/03/12 01:15:53;;;;;;;7.47;5.60;;;;;;;18.48;44.48;100942.25;4969447;28;20482;-75
2024/03/12 01:18:18;;;;;;;8.38;5.88;;;;;;;18.39;44.47;100935.06;4970152;28;20042;-74
2024/03/12 01:20:44;;;;;;;8.30;5.72;;;;;;;18.36;44.33;100936.16;4970173;28;20026;-75
2024/03/12 01:23:09;;;;;;;9.93;6.22;;;;;;;18.47;44.38;100962.53;4970582;28;20030;-74
2024/03/12 01:25:35;;;;;;;8.48;5.65;;;;;;;18.45;44.39;100961.81;4970294;28;20046;-75
2024/03/12 01:28:01;;;;;;;9.00;6.20;;;;;;;18.36;44.27;100946.72;4970561;28;20030;-74
2024/03/12 01:30:26;;;;;;;7.85;5.68;;;;;;;18.36;44.14;100945.88;4970164;28;20034;-75
2024/03/12 01:32:53;;;;;;;8.25;5.88;;;;;;;18.36;44.22;100945.88;4970267;28;20081;-75
2024/03/12 01:35:20;;;;;;;8.98;5.93;;;;;;;18.42;44.23;100956.78;4970218;28;20411;-75
2024/03/12 01:37:49;;;;;;;8.90;6.35;;;;;;;18.34;44.27;100951.28;4970056;28;20399;-74
2024/03/12 01:40:19;;;;;;;10.27;6.40;;;;;;;18.43;44.30;100969.00;4970004;28;20049;-75
2024/03/12 01:42:53;;;;;;;9.50;6.45;;;;;;;18.45;44.30;100976.78;4968008;28;20039;-74
2024/03/12 01:45:22;;;;;;;9.15;6.00;;;;;;;18.43;44.39;100970.81;4970113;28;20075;-74
2024/03/12 01:47:49;;;;;;;8.98;6.20;;;;;;;18.33;44.19;100964.59;4969873;28;20535;-74
2024/03/12 01:50:15;;;;;;;9.05;5.95;;;;;;;18.33;44.29;100962.81;4969768;28;20035;-74
2024/03/12 01:52:43;;;;;;;8.98;6.20;;;;;;;18.32;44.31;100966.38;4969808;28;20033;-74
2024/03/12 01:55:08;;;;;;;10.10;6.85;;;;;;;18.29;44.19;100961.34;4970018;28;20030;-74
2024/03/12 01:57:35;;;;;;;9.23;6.68;;;;;;;18.28;44.58;100972.88;4969658;28;20046;-74
2024/03/12 02:00:00;;;;;;;9.55;6.30;;;;;;;18.25;44.43;100973.13;4969693;28;20466;-74
2024/03/12 02:02:26;;;;;;;9.57;6.75;;;;;;;18.31;43.88;100975.28;4968559;28;20027;-75
2024/03/12 02:04:51;;;;;;;9.25;6.57;;;;;;;18.32;44.45;100976.94;4969674;28;20019;-74
2024/03/12 02:07:16;;;;;;;9.75;6.15;;;;;;;18.30;43.92;100976.22;4969181;28;20023;-74
2024/03/12 02:09:43;;;;;;;9.45;6.63;;;;;;;18.26;44.04;100966.88;4969341;28;20090;-74
2024/03/12 02:12:08;;;;;;;10.85;6.68;;;;;;;18.30;43.92;100976.22;4969355;28;20050;-75
2024/03/12 02:14:35;;;;;;;9.90;6.63;;;;;;;18.28;44.10;100979.00;4968188;28;20463;-74
2024/03/12 02:17:03;;;;;;;9.82;6.63;;;;;;;18.34;43.96;100997.94;4967650;28;20047;-74
2024/03/12 02:19:28;;;;;;;10.07;6.85;;;;;;;18.22;43.99;100984.75;4969233;28;20498;-74
2024/03/12 02:21:53;;;;;;;9.30;6.55;;;;;;;18.32;44.12;100998.06;4969234;28;20027;-74
2024/03/12 02:24:19;;;;;;;9.98;7.07;;;;;;;18.31;43.96;100999.84;4969434;28;20026;-74
2024/03/12 02:26:44;;;;;;;9.60;6.28;;;;;;;18.20;44.02;100977.91;4968744;28;20422;-74
2024/03/12 02:29:10;;;;;;;9.35;6.10;;;;;;;18.25;44.14;100992.44;4969130;28;20035;-74
2024/03/12 02:31:36;;;;;;;11.32;6.68;;;;;;;18.27;43.95;100989.66;4969184;28;20558;-74
2024/03/12 02:34:01;;;;;;;8.90;5.90;;;;;;;18.25;44.06;100995.06;4969036;28;20041;-74
2024/03/12 02:36:26;;;;;;;11.35;6.80;;;;;;;18.21;44.08;100992.78;4968324;28;20069;-74
2024/03/12 02:38:52;;;;;;;10.23;6.57;;;;;;;18.19;44.18;100992.09;4968702;28;20035;-73
2024/03/12 02:41:21;;;;;;;9.68;6.82;;;;;;;18.26;44.09;101019.63;4968315;28;20896;-74
2024/03/12 02:43:47;;;;;;;10.85;7.15;;;;;;;18.25;44.08;101013.53;4968262;28;20360;-73
2024/03/12 02:46:12;;;;;;;9.93;6.85;;;;;;;18.28;43.94;101017.75;4967684;28;20030;-74
2024/03/12 02:48:37;;;;;;;9.03;6.20;;;;;;;18.28;44.12;101020.38;4967961;28;20049;-74
2024/03/12 02:51:05;;;;;;;9.38;6.47;;;;;;;18.26;43.91;101027.56;4968070;28;20339;-74
2024/03/12 02:53:30;;;;;;;10.40;6.80;;;;;;;18.26;43.92;101023.13;4967529;28;20037;-74
2024/03/12 02:55:56;;;;;;;10.00;6.67;;;;;;;18.24;43.92;101026.84;4968340;28;20027;-74
2024/03/12 02:58:25;;;;;;;11.25;6.55;;;;;;;18.11;43.96;101008.50;4967738;28;20257;-74
2024/03/12 03:00:53;;;;;;;10.27;6.97;;;;;;;18.10;44.09;101010.31;4968511;28;20061;-74
2024/03/12 03:03:19;;;;;;;11.18;6.50;;;;;;;18.12;43.88;101010.19;4967640;28;20070;-74
2024/03/12 03:05:44;;;;;;;11.68;6.90;;;;;;;18.19;43.83;101021.94;4968785;28;20054;-74
2024/03/12 03:08:10;;;;;;;11.32;7.72;;;;;;;18.20;43.90;101030.66;4968163;28;20418;-74
2024/03/12 03:10:36;;;;;;;10.80;7.00;;;;;;;18.10;43.67;101014.72;4968218;28;20173;-74
2024/03/12 03:13:01;;;;;;;11.90;7.43;;;;;;;18.17;43.82;101023.03;4968314;28;20031;-74
2024/03/12 03:15:26;;;;;;;11.93;7.10;;;;;;;18.05;43.90;101012.44;4968044;28;20431;-74
2024/03/12 03:17:52;;;;;;;10.02;6.38;;;;;;;18.11;43.92;101021.69;4968063;28;20029;-74
2024/03/12 03:20:18;;;;;;;10.98;6.80;;;;;;;18.09;43.87;101005.16;4968298;28;20544;-74
2024/03/12 03:22:47;;;;;;;8.93;6.18;;;;;;;17.98;43.74;101000.72;4968011;28;20062;-74
2024/03/12 03:25:12;;;;;;;11.55;7.22;;;;;;;18.12;43.75;101028.66;4968460;28;20031;-74
2024/03/12 03:27:38;;;;;;;9.93;6.97;;;;;;;18.05;43.68;101023.00;4968132;28;20444;-73
2024/03/12 03:30:06;;;;;;;11.75;6.78;;;;;;;18.13;43.63;101043.50;4968444;28;20093;-74
2024/03/12 03:32:35;;;;;;;10.55;6.80;;;;;;;18.04;43.78;101025.75;4967944;28;20039;-73
2024/03/12 03:35:02;;;;;;;10.82;6.53;;;;;;;18.14;43.98;101042.56;4968130;28;20042;-74
2024/03/12 03:37:32;;;;;;;10.70;6.50;;;;;;;18.04;43.90;101031.03;4967270;28;20029;-74
2024/03/12 03:39:58;;;;;;;11.25;6.85;;;;;;;18.15;43.69;101049.53;4968152;28;20037;-73
2024/03/12 03:42:23;;;;;;;8.60;6.03;;;;;;;18.06;43.83;101043.16;4967963;28;20031;-73
2024/03/12 03:44:48;;;;;;;11.43;6.80;;;;;;;18.03;43.98;101040.75;4967910;28;20070;-74
2024/03/12 03:47:14;;;;;;;10.13;6.40;;;;;;;18.10;43.87;101051.66;4967653;28;20061;-74
2024/03/12 03:49:39;;;;;;;9.88;6.03;;;;;;;18.10;43.93;101055.16;4967539;28;20026;-74
2024/03/12 03:52:05;;;;;;;10.05;6.47;;;;;;;18.02;43.73;101044.34;4967436;28;20375;-74
2024/03/12 03:54:30;;;;;;;8.43;5.63;;;;;;;18.10;43.89;101059.56;4982413;28;20033;-74
2024/03/12 03:56:55;;;;;;;8.35;5.20;;;;;;;18.09;43.93;101064.00;4967574;28;20058;-74
2024/03/12 03:59:21;;;;;;;9.55;5.78;;;;;;;18.09;43.88;101066.66;4967606;28;20122;-74
2024/03/12 04:01:49;;;;;;;9.60;6.20;;;;;;;18.11;43.79;101070.00;4966520;28;20089;-74
2024/03/12 04:04:15;;;;;;;9.18;6.35;;;;;;;18.13;43.93;101073.38;4967038;28;20031;-74
2024/03/12 04:06:43;;;;;;;9.40;6.30;;;;;;;18.11;43.68;101079.72;4967344;28;20093;-73
2024/03/12 04:09:09;;;;;;;9.50;6.30;;;;;;;18.10;43.75;101078.88;4967879;28;20562;-74
2024/03/12 04:11:34;;;;;;;9.68;6.05;;;;;;;18.00;43.99;101066.53;4967688;28;20059;-74
2024/03/12 04:14:00;;;;;;;9.25;6.00;;;;;;;18.10;43.84;101088.56;4967835;28;20078;-73
2024/03/12 04:16:25;;;;;;;9.10;6.20;;;;;;;17.98;43.86;101074.56;4966930;28;20097;-74
2024/03/12 04:18:51;;;;;;;7.90;5.30;;;;;;;18.05;43.61;101083.66;4967130;28;20046;-74
2024/03/12 04:21:16;;;;;;;8.60;5.70;;;;;;;18.07;43.69;101092.31;4967182;28;20710;-74
2024/03/12 04:23:42;;;;;;;9.85;5.65;;;;;;;18.07;43.57;101097.59;4967421;28;20046;-74
2024/03/12 04:26:08;;;;;;;9.18;5.97;;;;;;;18.06;43.69;101098.53;4967305;28;20022;-74
2024/03/12 04:28:33;;;;;;;8.57;5.57;;;;;;;17.98;43.81;101089.56;4967400;28;20057;-74
2024/03/12 04:30:58;;;;;;;9.23;5.63;;;;;;;18.06;43.69;101110.91;4967844;28;20030;-74
2024/03/12 04:33:24;;;;;;;8.77;5.45;;;;;;;18.07;43.62;101118.69;4967552;28;20121;-73
2024/03/12 04:35:50;;;;;;;9.23;5.43;;;;;;;18.00;43.72;101104.28;4967672;28;20474;-74
2024/03/12 04:38:18;;;;;;;10.38;5.85;;;;;;;18.05;43.62;101114.47;4967560;28;20042;-74
2024/03/12 04:40:47;;;;;;;8.52;6.45;;;;;;;18.03;43.51;101114.59;4967489;28;20443;-74
2024/03/12 04:43:13;;;;;;;10.65;6.57;;;;;;;18.04;43.57;101126.84;4967428;28;20419;-74
2024/03/12 04:45:40;;;;;;;8.57;5.63;;;;;;;18.05;43.78;101119.75;4967407;28;20019;-74
2024/03/12 04:48:07;;;;;;;10.65;5.97;;;;;;;18.02;43.63;101123.44;4966828;28;20451;-74
2024/03/12 04:50:33;;;;;;;8.60;5.72;;;;;;;18.03;43.60;101125.13;4969268;28;20426;-73
2024/03/12 04:52:58;;;;;;;12.05;6.80;;;;;;;17.99;43.46;101115.81;4970903;28;20030;-74
2024/03/12 04:55:23;;;;;;;11.18;6.18;;;;;;;17.99;43.55;101117.56;4969693;28;20074;-74
2024/03/12 04:57:48;;;;;;;10.27;5.85;;;;;;;17.87;43.56;101106.97;4970731;28;20087;-74
2024/03/12 05:00:14;;;;;;;10.82;6.88;;;;;;;17.95;43.46;101130.16;4970782;28;20447;-74
2024/03/12 05:02:40;;;;;;;8.95;5.78;;;;;;;17.88;43.70;101116.63;4969420;28;20022;-74
2024/03/12 05:05:09;;;;;;;9.68;5.85;;;;;;;17.95;43.71;101133.63;4970589;28;20031;-74
2024/03/12 05:07:34;;;;;;;9.20;5.78;;;;;;;18.00;43.57;101151.75;4970402;28;20027;-74
2024/03/12 05:09:59;;;;;;;9.80;5.93;;;;;;;17.99;43.71;101150.09;4970553;28;20023;-74
2024/03/12 05:12:25;;;;;;;9.70;6.18;;;;;;;17.97;43.52;101151.16;4970284;28;20027;-74
2024/03/12 05:14:50;;;;;;;10.90;5.90;;;;;;;17.94;43.46;101155.69;4969114;28;20352;-74
2024/03/12 05:17:16;;;;;;;10.10;5.70;;;;;;;17.82;43.73;101134.66;4970473;28;20452;-74
2024/03/12 05:19:41;;;;;;;10.02;6.30;;;;;;;17.95;43.51;101159.16;4970140;28;20053;-73
2024/03/12 05:22:07;;;;;;;11.15;5.72;;;;;;;17.85;43.60;101143.19;4970459;28;20452;-74
2024/03/12 05:24:33;;;;;;;7.53;5.30;;;;;;;17.97;43.82;101174.88;4970684;28;20058;-73
2024/03/12 05:26:59;;;;;;;10.80;6.10;;;;;;;17.87;43.66;101158.88;4970463;28;20031;-74
2024/03/12 05:29:33;;;;;;;9.90;5.88;;;;;;;17.93;43.52;101172.47;4969998;28;20031;-73
2024/03/12 05:32:05;;;;;;;9.23;5.60;;;;;;;17.96;43.62;101187.22;4969497;28;20030;-74
2024/03/12 05:34:37;;;;;;;9.85;5.80;;;;;;;17.82;43.58;101163.66;4969529;28;20035;-74
2024/03/12 05:37:04;;;;;;;8.25;5.40;;;;;;;17.86;43.58;101179.13;4969880;28;20038;-74
2024/03/12 05:40:00;;;;;;;10.15;6.00;;;;;;;17.86;43.48;101176.47;4969723;28;20117;-74
2024/03/12 05:48:09;;;;;;;8.68;5.20;;;;;;;17.92;43.45;101198.94;4969856;28;20085;-74
2024/03/12 05:50:39;;;;;;;8.70;5.70;;;;;;;17.78;43.61;101176.22;4969597;28;20085;-74
2024/03/12 05:53:05;;;;;;;9.20;5.57;;;;;;;17.79;43.45;101193.72;4968795;28;20403;-74
2024/03/12 05:55:30;;;;;;;9.93;5.50;;;;;;;17.91;43.22;101213.94;4969834;28;20085;-74
2024/03/12 05:57:55;;;;;;;9.75;5.22;;;;;;;17.89;43.37;101213.19;4969579;28;20038;-74
2024/03/12 06:00:21;;;;;;;8.05;5.25;;;;;;;17.82;43.64;101200.56;4969165;28;20039;-74
2024/03/12 06:02:46;;;;;;;9.90;5.50;;;;;;;17.82;43.44;101205.84;4968706;28;20101;-74
2024/03/12 06:05:12;;;;;;;9.73;6.05;;;;;;;17.85;43.32;101210.88;4969786;28;20050;-73
2024/03/12 06:07:44;;;;;;;9.00;5.57;;;;;;;17.83;43.55;101212.78;4968463;28;20034;-73
2024/03/12 06:10:11;;;;;;;10.43;5.35;;;;;;;17.88;43.92;101232.63;4969130;28;20074;-74
2024/03/12 06:12:36;;;;;;;9.13;5.15;;;;;;;17.81;43.51;101214.69;4967648;28;20034;-74
2024/03/12 06:15:01;;;;;;;7.65;4.70;;;;;;;17.81;43.59;101218.16;4969767;28;20041;-74
2024/03/12 06:17:27;;;;;;;7.75;4.70;;;;;;;17.87;43.77;101225.63;4969428;28;20062;-73
2024/03/12 06:19:52;;;;;;;7.82;4.40;;;;;;;17.98;43.69;101245.13;4969504;28;20145;-74
2024/03/12 06:22:17;;;;;;;7.97;4.30;;;;;;;17.98;43.94;101245.97;4969386;28;20111;-74
2024/03/12 06:24:43;;;;;;;7.05;4.70;;;;;;;18.04;44.06;101252.56;4969115;28;20049;-74
2024/03/12 06:27:08;;;;;;;8.20;4.93;;;;;;;18.01;43.99;101247.50;4969389;28;20430;-74
2024/03/12 06:29:34;;;;;;;8.32;4.38;;;;;;;17.95;43.76;101236.47;4969899;28;20045;-74
2024/03/12 06:31:59;;;;;;;6.88;4.15;;;;;;;18.10;43.88;101260.03;4969064;28;20035;-75
2024/03/12 06:34:28;;;;;;;6.93;4.20;;;;;;;18.08;43.92;101249.59;4969326;28;20443;-74
2024/03/12 06:37:00;;;;;;;6.47;4.18;;;;;;;18.09;43.96;101251.28;4969121;28;20065;-74
2024/03/12 06:39:33;;;;;;;7.00;4.40;;;;;;;18.19;43.90;101258.50;4969015;28;20030;-75
2024/03/12 06:42:01;;;;;;;7.25;4.13;;;;;;;18.22;43.87;101268.84;4968916;28;20042;-74
2024/03/12 06:44:26;;;;;;;7.20;3.83;;;;;;;18.23;43.81;101267.84;4967754;28;20424;-74
2024/03/12 06:46:52;;;;;;;6.78;4.10;;;;;;;18.25;43.77;101272.06;4968783;28;20063;-74
2024/03/12 06:49:20;;;;;;;6.63;4.15;;;;;;;18.25;43.84;101272.06;4968998;28;20031;-75
2024/03/12 06:51:47;;;;;;;7.72;4.50;;;;;;;18.26;43.77;101280.81;4968704;28;20053;-74
2024/03/12 06:54:12;;;;;;;6.60;3.95;;;;;;;18.27;43.59;101275.44;4969004;28;20023;-74
2024/03/12 06:56:42;;;;;;;7.28;4.60;;;;;;;18.21;43.94;101273.25;4967782;28;20096;-74
2024/03/12 06:59:10;;;;;;;6.63;3.78;;;;;;;18.19;43.63;101266.44;4969186;28;20418;-75
2024/03/12 07:01:40;;;;;;;6.90;4.07;;;;;;;18.27;43.73;101285.97;4967918;28;20038;-74
2024/03/12 07:04:09;;;;;;;7.40;4.65;;;;;;;18.31;43.66;101286.63;4968403;28;20038;-75
2024/03/12 07:06:36;;;;;;;7.30;4.68;;;;;;;18.22;43.63;101266.19;4968607;28;20035;-75
2024/03/12 07:09:08;;;;;;;6.18;4.35;;;;;;;18.24;43.47;101272.19;4968881;28;20023;-74
2024/03/12 07:11:34;;;;;;;7.25;3.97;;;;;;;18.32;43.78;101293.56;4968651;28;20067;-74
2024/03/12 07:14:02;;;;;;;6.70;4.25;;;;;;;18.24;43.64;101277.47;4967666;28;20035;-74
2024/03/12 07:16:27;;;;;;;7.03;4.40;;;;;;;18.31;43.58;101294.53;4968539;28;20023;-74
2024/03/12 07:18:55;;;;;;;5.95;3.90;;;;;;;18.29;43.61;101284.09;4968308;28;20403;-74
2024/03/12 07:21:22;;;;;;;6.90;3.75;;;;;;;18.29;43.54;101292.00;4968723;28;20162;-76
2024/03/12 07:23:49;;;;;;;7.30;4.55;;;;;;;18.20;43.61;101276.00;4968536;28;20026;-75
2024/03/12 07:26:14;;;;;;;8.60;4.63;;;;;;;18.32;43.57;101296.19;4969121;28;20035;-75
2024/03/12 07:28:42;;;;;;;7.65;4.65;;;;;;;18.23;43.35;101281.06;4968430;28;20379;-76
2024/03/12 07:31:08;;;;;;;7.20;4.07;;;;;;;18.28;43.63;101292.13;4969147;28;20030;-76
2024/03/12 07:33:33;;;;;;;7.65;4.43;;;;;;;18.33;43.61;101299.69;4969005;28;20030;-75
2024/03/12 07:35:58;;;;;;;7.45;4.60;;;;;;;18.23;43.82;101292.47;4969577;28;20089;-76
2024/03/12 07:38:27;;;;;;;8.15;5.00;;;;;;;18.26;43.56;101296.66;4969049;28;20121;-75
2024/03/12 07:40:52;;;;;;;8.52;4.65;;;;;;;18.24;43.82;101290.66;4968924;28;20456;-76
2024/03/12 07:43:18;;;;;;;7.97;4.47;;;;;;;18.30;43.83;101304.22;4968578;28;20118;-75
2024/03/12 07:45:46;;;;;;;8.88;5.10;;;;;;;18.20;43.79;101292.69;4968818;28;20023;-76
2024/03/12 07:48:12;;;;;;;8.27;4.88;;;;;;;18.26;43.72;101304.56;4968575;28;20479;-76
2024/03/12 07:50:38;;;;;;;7.43;4.68;;;;;;;18.25;43.85;101302.91;4967896;28;20066;-77
2024/03/12 07:53:06;;;;;;;8.20;5.00;;;;;;;18.21;44.01;101302.28;4969452;28;20046;-76
2024/03/12 07:55:32;;;;;;;9.30;4.40;;;;;;;18.23;44.09;101307.44;4968483;28;20030;-76
2024/03/12 07:58:01;;;;;;;7.82;4.68;;;;;;;18.31;44.04;101323.56;4969465;28;20197;-75
2024/03/12 08:00:26;;;;;;;8.18;4.65;;;;;;;18.26;44.05;101317.75;4969646;28;20033;-74
2024/03/12 08:02:51;;;;;;;7.50;4.35;;;;;;;18.22;44.13;101309.25;4968702;28;20031;-74
2024/03/12 08:05:17;;;;;;;6.68;4.28;;;;;;;18.20;44.07;101311.16;4969328;28;20030;-74
2024/03/12 08:07:44;;;;;;;7.90;4.90;;;;;;;18.36;44.26;101331.09;4969016;28;20080;-72
2024/03/12 08:10:12;;;;;;;9.05;4.75;;;;;;;18.23;44.37;101308.28;4969846;28;20101;-73
2024/03/12 08:12:39;;;;;;;7.63;4.75;;;;;;;18.33;44.57;101334.84;4969930;28;20044;-76
2024/03/12 08:15:06;;;;;;;7.70;4.72;;;;;;;18.23;44.43;101320.63;4969624;28;20114;-76
2024/03/12 08:17:32;;;;;;;7.65;4.53;;;;;;;18.32;44.31;101330.50;4969296;28;20030;-78
2024/03/12 08:19:58;;;;;;;8.05;4.85;;;;;;;18.35;44.43;101353.19;4969587;28;20097;-78
2024/03/12 08:22:23;;;;;;;6.63;4.30;;;;;;;18.24;44.75;101327.59;4969781;28;20065;-76
2024/03/12 08:24:50;;;;;;;7.15;4.55;;;;;;;18.27;44.62;101335.28;4970632;28;20062;-76
2024/03/12 08:27:18;;;;;;;7.65;4.30;;;;;;;18.26;44.81;101330.94;4973667;28;20027;-75
2024/03/12 08:29:43;;;;;;;7.95;4.80;;;;;;;18.37;44.50;101353.91;4973920;28;20039;-76
2024/03/12 08:32:09;;;;;;;7.50;4.72;;;;;;;18.29;44.61;101344.78;4973905;28;20356;-76
2024/03/12 08:34:36;;;;;;;8.05;4.72;;;;;;;18.24;44.70;101338.97;4973799;28;20026;-75
2024/03/12 08:37:03;;;;;;;8.00;4.90;;;;;;;18.31;44.84;101348.13;4973590;28;20157;-75
2024/03/12 08:39:28;;;;;;;7.75;4.72;;;;;;;18.31;44.80;101352.59;4971322;28;20029;-75
2024/03/12 08:41:57;;;;;;;7.15;4.38;;;;;;;18.37;45.00;101365.28;4971045;28;20043;-75
2024/03/12 08:44:23;;;;;;;8.20;5.30;;;;;;;18.39;44.91;101367.81;4972639;28;20034;-73
2024/03/12 08:46:50;;;;;;;9.00;5.38;;;;;;;18.28;44.95;101343.09;4972914;28;20023;-73
2024/03/12 08:49:15;;;;;;;8.45;5.63;;;;;;;18.28;45.02;101348.38;4972991;28;20030;-76
2024/03/12 08:51:41;;;;;;;7.47;4.80;;;;;;;18.44;45.45;101374.47;4973168;28;20451;-75
2024/03/12 08:54:08;;;;;;;11.07;5.15;;;;;;;18.31;45.32;101356.06;4972477;28;20039;-73
2024/03/12 08:56:36;;;;;;;9.23;5.20;;;;;;;18.42;45.42;101368.47;4972017;28;20041;-74
2024/03/12 08:59:01;;;;;;;8.43;5.43;;;;;;;18.42;45.31;101362.31;4972475;28;20053;-73
2024/03/12 09:01:26;;;;;;;8.85;5.28;;;;;;;18.36;44.92;101358.34;4972099;28;20574;-74
2024/03/12 09:03:54;;;;;;;9.23;5.95;;;;;;;18.45;45.37;101376.16;4971452;28;20375;-76
2024/03/12 09:06:20;;;;;;;8.57;5.43;;;;;;;18.40;45.35;101366.88;4972313;28;20027;-75
2024/03/12 09:08:46;;;;;;;8.35;5.40;;;;;;;18.52;45.46;101389.72;4971703;28;20031;-76
2024/03/12 09:11:16;;;;;;;8.77;5.70;;;;;;;18.52;45.44;101378.31;4976480;28;20383;-74
2024/03/12 09:13:42;;;;;;;8.30;5.75;;;;;;;18.42;45.56;101364.97;4976498;28;20034;-74
2024/03/12 09:16:12;;;;;;;8.55;5.70;;;;;;;18.53;45.43;101383.47;4974488;28;20046;-77
2024/03/12 09:18:42;;;;;;;9.90;6.55;;;;;;;18.48;45.64;101377.69;4973173;28;20039;-74
2024/03/12 09:21:09;;;;;;;9.20;6.28;;;;;;;18.55;45.54;101389.50;4975490;28;20046;-74
2024/03/12 09:23:35;;;;;;;8.88;5.80;;;;;;;18.45;45.48;101367.38;4976163;28;20030;-76
2024/03/12 09:26:04;;;;;;;9.13;5.95;;;;;;;18.54;45.49;101382.53;4975654;28;20530;-76
2024/03/12 09:28:30;;;;;;;11.15;6.40;;;;;;;18.50;45.40;101375.81;4974996;28;20366;-73
2024/03/12 09:30:55;;;;;;;8.95;6.38;;;;;;;18.44;45.41;101355.16;4975921;28;20034;-74
2024/03/12 09:33:25;;;;;;;10.10;6.40;;;;;;;18.46;45.18;101371.69;4975167;28;20030;-75
2024/03/12 09:35:51;;;;;;;9.77;6.32;;;;;;;18.49;45.55;101374.13;4975120;28;20031;-76
2024/03/12 09:38:16;;;;;;;10.27;6.25;;;;;;;18.57;45.40;101389.38;4974425;28;20047;-73
2024/03/12 09:40:42;;;;;;;8.85;6.10;;;;;;;18.55;45.36;101389.50;4969931;28;20037;-75
2024/03/12 09:43:11;;;;;;;9.95;6.45;;;;;;;18.47;45.55;101368.94;4969910;28;20050;-72
2024/03/12 09:45:39;;;;;;;10.98;6.38;;;;;;;18.50;45.26;101373.16;4969541;28;20039;-76
2024/03/12 09:48:05;;;;;;;9.35;6.40;;;;;;;18.52;45.36;101376.53;4969508;28;20045;-73
2024/03/12 09:50:31;;;;;;;8.65;6.15;;;;;;;18.48;45.62;101375.06;4969574;28;20023;-75
2024/03/12 09:52:59;;;;;;;10.30;6.40;;;;;;;18.57;45.29;101378.81;4969515;28;20085;-71
2024/03/12 09:55:25;;;;;;;9.63;6.93;;;;;;;18.56;45.58;101377.13;4969704;28;20062;-72
2024/03/12 09:57:51;;;;;;;8.82;6.68;;;;;;;18.53;45.43;101383.47;4969627;28;20089;-74
2024/03/12 10:00:22;;;;;;;10.48;6.93;;;;;;;18.58;45.48;101383.13;4969038;28;20513;-71
2024/03/12 10:02:49;;;;;;;9.55;6.55;;;;;;;18.55;45.47;101381.59;4968147;28;20046;-72
2024/03/12 10:05:16;;;;;;;9.05;7.03;;;;;;;18.59;45.43;101390.09;4969286;28;20089;-72
2024/03/12 10:08:10;;;;;;;10.65;7.00;;;;;;;18.62;45.40;101382.78;4969201;28;20023;-74
2024/03/12 10:10:40;;;;;;;9.50;6.60;;;;;;;18.51;45.47;101379.28;4969230;28;20041;-74
2024/03/12 10:13:08;;;;;;;9.77;6.93;;;;;;;18.51;45.30;101376.63;4967501;28;20043;-73
2024/03/12 10:15:36;;;;;;;9.57;6.65;;;;;;;18.58;45.50;101394.56;4968673;28;20550;-74
2024/03/12 10:18:06;;;;;;;11.50;7.50;;;;;;;18.52;45.37;101380.94;4966759;28;20379;-73
2024/03/12 10:20:44;;;;;;;12.35;7.40;;;;;;;18.51;45.40;101368.72;4969291;28;20034;-73
2024/03/12 10:23:09;;;;;;;10.95;7.63;;;;;;;18.52;45.43;101371.25;4968726;28;20086;-72
2024/03/12 10:25:38;;;;;;;9.32;6.95;;;;;;;18.58;45.44;101384.00;4969102;28;20027;-73
2024/03/12 10:28:07;;;;;;;10.38;7.07;;;;;;;18.51;45.44;101369.56;4968636;28;20030;-73
2024/03/12 10:30:32;;;;;;;10.07;7.53;;;;;;;18.56;45.66;101379.78;4968388;28;20027;-73
2024/03/12 10:32:57;;;;;;;10.57;7.38;;;;;;;18.56;45.74;101385.88;4967632;28;20077;-74
2024/03/12 10:35:23;;;;;;;10.82;7.60;;;;;;;18.58;45.25;101396.31;4967658;28;20072;-75
2024/03/12 10:37:50;;;;;;;10.00;7.30;;;;;;;18.57;45.57;101389.38;4964893;28;20048;-74
2024/03/12 10:40:17;;;;;;;10.63;7.68;;;;;;;18.52;45.44;101384.44;4966784;28;20034;-74
2024/03/12 10:42:54;;;;;;;9.65;7.28;;;;;;;18.58;45.28;101397.19;4967682;28;20107;-74
2024/03/12 10:45:21;;;;;;;10.20;7.47;;;;;;;18.58;45.47;101399.84;4967843;28;20412;-73
2024/03/12 10:47:48;;;;;;;10.32;8.13;;;;;;;18.47;45.52;101381.31;4967904;28;20042;-74
2024/03/12 10:50:16;;;;;;;11.18;7.50;;;;;;;18.61;45.72;101409.31;4968291;28;20058;-73
2024/03/12 10:52:45;;;;;;;10.68;7.57;;;;;;;18.62;45.21;101408.34;4967674;28;20553;-74
2024/03/12 10:55:20;;;;;;;10.38;6.82;;;;;;;18.53;45.50;101391.38;4968134;28;20019;-74
2024/03/12 10:57:53;;;;;;;10.52;8.07;;;;;;;18.56;45.54;101400.88;4967916;28;20033;-74
2024/03/12 11:00:25;;;;;;;9.77;7.53;;;;;;;18.58;45.33;101398.97;4966686;28;20042;-71
2024/03/12 11:02:52;;;;;;;11.68;7.75;;;;;;;18.59;45.30;101403.31;4966462;28;20459;-74
2024/03/12 11:05:19;;;;;;;9.70;7.25;;;;;;;18.54;45.10;101390.44;4967154;28;20132;-74
2024/03/12 11:07:45;;;;;;;9.80;7.65;;;;;;;18.57;45.31;101384.09;4966814;28;20066;-74
2024/03/12 11:10:10;;;;;;;10.05;7.22;;;;;;;18.53;45.35;101382.63;4967261;28;20101;-73
2024/03/12 11:12:36;;;;;;;11.23;7.55;;;;;;;18.58;45.27;101397.19;4967296;28;20034;-74
2024/03/12 11:15:02;;;;;;;10.52;7.57;;;;;;;18.57;45.36;101392.84;4967787;28;20452;-75
2024/03/12 11:17:28;;;;;;;10.10;7.88;;;;;;;18.60;45.30;101407.63;4967883;28;20042;-74
2024/03/12 11:19:57;;;;;;;10.88;7.88;;;;;;;18.57;45.34;101397.31;4966781;28;20063;-74
2024/03/12 11:22:23;;;;;;;10.48;7.57;;;;;;;18.59;45.32;101398.03;4964782;28;20102;-74
2024/03/12 11:24:49;;;;;;;10.43;7.35;;;;;;;18.58;45.28;101397.19;4966218;28;20051;-75